sensor_id;sensor_type;location;lat;lon;timestamp;pressure;altitude;pressure_sealevel;temperature;humidity
32033;BME280;31720;52.638;9.216;2022-07-29T00:02:33;101639.56;;;16.01;67.78
32033;BME280;31720;52.638;9.216;2022-07-29T00:05:35;101639.56;;;16.01;66.81
32033;BME280;31720;52.638;9.216;2022-07-29T00:08:37;101636.13;;;15.98;67.25
32033;BME280;31720;52.638;9.216;2022-07-29T00:11:39;101632.63;;;15.98;67.78
32033;BME280;31720;52.638;9.216;2022-07-29T00:14:40;101624.88;;;15.95;67.71
32033;BME280;31720;52.638;9.216;2022-07-29T00:17:41;101618.13;;;15.89;67.63
32033;BME280;31720;52.638;9.216;2022-07-29T00:20:43;101621.19;;;15.83;67.54
32033;BME280;31720;52.638;9.216;2022-07-29T00:23:45;101614.34;;;15.79;68.38
32033;BME280;31720;52.638;9.216;2022-07-29T00:26:46;101609.25;;;15.76;68.21
32033;BME280;31720;52.638;9.216;2022-07-29T00:29:48;101599.41;;;15.78;68.93
32033;BME280;31720;52.638;9.216;2022-07-29T00:32:49;101593.53;;;15.73;68.67
32033;BME280;31720;52.638;9.216;2022-07-29T00:35:50;101596.28;;;15.71;69.46
32033;BME280;31720;52.638;9.216;2022-07-29T00:38:53;101590.56;;;15.63;68.81
32033;BME280;31720;52.638;9.216;2022-07-29T00:41:54;101590.56;;;15.63;69.02
32033;BME280;31720;52.638;9.216;2022-07-29T00:44:56;101577.59;;;15.59;69.46
32033;BME280;31720;52.638;9.216;2022-07-29T00:47:57;101586.16;;;15.64;70.04
32033;BME280;31720;52.638;9.216;2022-07-29T00:50:59;101584.50;;;15.61;70.63
32033;BME280;31720;52.638;9.216;2022-07-29T00:54:04;101575.56;;;15.64;70.33
32033;BME280;31720;52.638;9.216;2022-07-29T00:57:06;101580.75;;;15.65;70.02
32033;BME280;31720;52.638;9.216;2022-07-29T01:00:10;101575.59;;;15.62;70.21
32033;BME280;31720;52.638;9.216;2022-07-29T01:03:12;101581.59;;;15.66;70.99
32033;BME280;31720;52.638;9.216;2022-07-29T01:06:14;101576.22;;;15.67;71.33
32033;BME280;31720;52.638;9.216;2022-07-29T01:09:18;101562.88;;;15.69;71.12
32033;BME280;31720;52.638;9.216;2022-07-29T01:12:22;101562.03;;;15.68;70.70
32033;BME280;31720;52.638;9.216;2022-07-29T01:15:25;101556.91;;;15.65;70.52
32033;BME280;31720;52.638;9.216;2022-07-29T01:18:30;101560.41;;;15.66;70.87
32033;BME280;31720;52.638;9.216;2022-07-29T01:21:50;101558.78;;;15.63;69.99
32033;BME280;31720;52.638;9.216;2022-07-29T01:28:39;101544.19;;;15.56;70.25
32033;BME280;31720;52.638;9.216;2022-07-29T01:31:50;101539.84;;;15.55;70.48
32033;BME280;31720;52.638;9.216;2022-07-29T01:34:55;101537.94;;;15.57;70.73
32033;BME280;31720;52.638;9.216;2022-07-29T01:38:02;101534.72;;;15.52;71.42
32033;BME280;31720;52.638;9.216;2022-07-29T01:41:08;101532.63;;;15.57;71.64
32033;BME280;31720;52.638;9.216;2022-07-29T01:44:15;101536.34;;;15.55;70.86
32033;BME280;31720;52.638;9.216;2022-07-29T01:47:23;101534.53;;;15.55;71.45
32033;BME280;31720;52.638;9.216;2022-07-29T01:50:29;101530.09;;;15.56;71.30
32033;BME280;31720;52.638;9.216;2022-07-29T01:53:35;101531.06;;;15.55;71.40
32033;BME280;31720;52.638;9.216;2022-07-29T01:56:39;101520.44;;;15.55;71.38
32033;BME280;31720;52.638;9.216;2022-07-29T01:59:43;101525.66;;;15.56;71.61
32033;BME280;31720;52.638;9.216;2022-07-29T02:02:47;101514.03;;;15.59;71.62
32033;BME280;31720;52.638;9.216;2022-07-29T02:05:50;101526.59;;;15.55;70.76
32033;BME280;31720;52.638;9.216;2022-07-29T02:08:54;101518.81;;;15.52;71.25
32033;BME280;31720;52.638;9.216;2022-07-29T02:11:59;101524.22;;;15.51;71.10
32033;BME280;31720;52.638;9.216;2022-07-29T02:15:04;101512.84;;;15.48;71.75
32033;BME280;31720;52.638;9.216;2022-07-29T02:18:17;101511.09;;;15.49;71.23
32033;BME280;31720;52.638;9.216;2022-07-29T02:21:24;101517.59;;;15.43;71.36
32033;BME280;31720;52.638;9.216;2022-07-29T02:24:26;101509.84;;;15.40;71.27
32033;BME280;31720;52.638;9.216;2022-07-29T02:27:28;101500.47;;;15.35;71.78
32033;BME280;31720;52.638;9.216;2022-07-29T02:30:32;101503.31;;;15.32;71.49
32033;BME280;31720;52.638;9.216;2022-07-29T02:33:35;101503.31;;;15.32;71.99
32033;BME280;31720;52.638;9.216;2022-07-29T02:36:37;101510.50;;;15.30;72.24
32033;BME280;31720;52.638;9.216;2022-07-29T02:39:41;101511.94;;;15.35;72.41
32033;BME280;31720;52.638;9.216;2022-07-29T02:42:43;101509.94;;;15.39;71.88
32033;BME280;31720;52.638;9.216;2022-07-29T02:45:51;101510.72;;;15.41;71.92
32033;BME280;31720;52.638;9.216;2022-07-29T02:48:58;101499.25;;;15.40;71.71
32033;BME280;31720;52.638;9.216;2022-07-29T02:52:02;101496.13;;;15.34;72.00
32033;BME280;31720;52.638;9.216;2022-07-29T02:55:11;101496.88;;;15.21;71.38
32033;BME280;31720;52.638;9.216;2022-07-29T02:58:20;101501.41;;;15.19;72.85
32033;BME280;31720;52.638;9.216;2022-07-29T03:01:26;101489.03;;;15.20;72.47
32033;BME280;31720;52.638;9.216;2022-07-29T03:04:32;101489.41;;;15.14;72.27
32033;BME280;31720;52.638;9.216;2022-07-29T03:07:35;101495.66;;;15.13;72.34
32033;BME280;31720;52.638;9.216;2022-07-29T03:10:39;101498.28;;;15.13;72.42
32033;BME280;31720;52.638;9.216;2022-07-29T03:13:44;101502.72;;;15.12;72.65
32033;BME280;31720;52.638;9.216;2022-07-29T03:16:47;101507.16;;;15.12;72.49
32033;BME280;31720;52.638;9.216;2022-07-29T03:19:49;101501.22;;;15.08;72.47
32033;BME280;31720;52.638;9.216;2022-07-29T03:22:51;101500.34;;;15.08;72.86
32033;BME280;31720;52.638;9.216;2022-07-29T03:25:52;101490.69;;;15.07;72.60
32033;BME280;31720;52.638;9.216;2022-07-29T03:28:54;101496.28;;;15.02;73.00
32033;BME280;31720;52.638;9.216;2022-07-29T03:31:57;101499.31;;;15.10;73.29
32033;BME280;31720;52.638;9.216;2022-07-29T03:34:58;101499.41;;;15.09;73.75
32033;BME280;31720;52.638;9.216;2022-07-29T03:38:00;101495.72;;;15.11;73.42
32033;BME280;31720;52.638;9.216;2022-07-29T03:41:06;101494.69;;;15.14;73.97
32033;BME280;31720;52.638;9.216;2022-07-29T03:44:08;101495.66;;;15.13;73.48
32033;BME280;31720;52.638;9.216;2022-07-29T03:47:13;101494.13;;;15.09;73.02
32033;BME280;31720;52.638;9.216;2022-07-29T03:50:15;101489.19;;;15.03;73.01
32033;BME280;31720;52.638;9.216;2022-07-29T03:53:17;101492.03;;;15.00;72.96
32033;BME280;31720;52.638;9.216;2022-07-29T03:56:21;101489.66;;;14.95;73.37
32033;BME280;31720;52.638;9.216;2022-07-29T03:59:23;101491.34;;;14.96;73.37
32033;BME280;31720;52.638;9.216;2022-07-29T04:02:26;101491.34;;;14.96;73.71
32033;BME280;31720;52.638;9.216;2022-07-29T04:05:27;101497.22;;;15.01;73.67
32033;BME280;31720;52.638;9.216;2022-07-29T04:08:29;101496.47;;;14.99;73.51
32033;BME280;31720;52.638;9.216;2022-07-29T04:11:30;101495.88;;;14.94;73.52
32033;BME280;31720;52.638;9.216;2022-07-29T04:14:32;101486.25;;;14.93;73.88
32033;BME280;31720;52.638;9.216;2022-07-29T04:17:35;101493.06;;;14.97;74.06
32033;BME280;31720;52.638;9.216;2022-07-29T04:20:36;101501.56;;;15.02;73.91
32033;BME280;31720;52.638;9.216;2022-07-29T04:23:37;101498.91;;;15.02;74.16
32033;BME280;31720;52.638;9.216;2022-07-29T04:26:39;101499.97;;;15.00;74.02
32033;BME280;31720;52.638;9.216;2022-07-29T04:29:40;101502.41;;;15.03;75.95
32033;BME280;31720;52.638;9.216;2022-07-29T04:32:43;101508.22;;;15.09;75.18
32033;BME280;31720;52.638;9.216;2022-07-29T04:35:44;101497.91;;;15.05;75.00
32033;BME280;31720;52.638;9.216;2022-07-29T04:38:45;101494.94;;;14.95;75.15
32033;BME280;31720;52.638;9.216;2022-07-29T04:41:47;101498.63;;;14.92;74.96
32033;BME280;31720;52.638;9.216;2022-07-29T04:44:49;101502.91;;;14.95;75.97
32033;BME280;31720;52.638;9.216;2022-07-29T04:47:51;101505.16;;;15.01;75.99
32033;BME280;31720;52.638;9.216;2022-07-29T04:50:53;101506.69;;;15.05;76.22
32033;BME280;31720;52.638;9.216;2022-07-29T04:53:54;101522.56;;;15.05;75.87
32033;BME280;31720;52.638;9.216;2022-07-29T04:56:55;101523.25;;;15.09;76.27
32033;BME280;31720;52.638;9.216;2022-07-29T04:59:57;101531.66;;;15.15;76.47
32033;BME280;31720;52.638;9.216;2022-07-29T05:03:00;101531.22;;;15.23;76.61
32033;BME280;31720;52.638;9.216;2022-07-29T05:06:01;101515.50;;;15.20;75.88
32033;BME280;31720;52.638;9.216;2022-07-29T05:09:02;101512.38;;;15.13;75.48
32033;BME280;31720;52.638;9.216;2022-07-29T05:12:05;101496.00;;;15.07;75.53
32033;BME280;31720;52.638;9.216;2022-07-29T05:15:07;101487.31;;;15.05;76.21
32033;BME280;31720;52.638;9.216;2022-07-29T05:18:10;101483.59;;;15.07;76.90
32033;BME280;31720;52.638;9.216;2022-07-29T05:21:12;101478.31;;;15.07;76.70
32033;BME280;31720;52.638;9.216;2022-07-29T05:24:14;101479.84;;;15.11;76.31
32033;BME280;31720;52.638;9.216;2022-07-29T05:27:15;101492.22;;;15.11;77.20
32033;BME280;31720;52.638;9.216;2022-07-29T05:30:17;101498.09;;;15.16;77.21
32033;BME280;31720;52.638;9.216;2022-07-29T05:33:20;101506.03;;;15.30;76.55
32033;BME280;31720;52.638;9.216;2022-07-29T05:36:22;101510.78;;;15.39;76.45
32033;BME280;31720;52.638;9.216;2022-07-29T05:39:23;101511.84;;;15.51;76.85
32033;BME280;31720;52.638;9.216;2022-07-29T05:42:25;101512.56;;;15.53;76.25
32033;BME280;31720;52.638;9.216;2022-07-29T05:45:26;101503.72;;;15.54;76.48
32033;BME280;31720;52.638;9.216;2022-07-29T05:48:29;101503.22;;;15.62;76.41
32033;BME280;31720;52.638;9.216;2022-07-29T05:51:30;101502.28;;;15.63;76.42
32033;BME280;31720;52.638;9.216;2022-07-29T05:54:32;101509.13;;;15.67;76.46
32033;BME280;31720;52.638;9.216;2022-07-29T05:57:33;101495.59;;;15.71;76.32
32033;BME280;31720;52.638;9.216;2022-07-29T06:00:34;101500.00;;;15.71;75.63
32033;BME280;31720;52.638;9.216;2022-07-29T06:03:37;101490.28;;;15.71;75.45
32033;BME280;31720;52.638;9.216;2022-07-29T06:06:38;101502.97;;;15.81;75.72
32033;BME280;31720;52.638;9.216;2022-07-29T06:09:40;101500.56;;;15.90;75.99
32033;BME280;31720;52.638;9.216;2022-07-29T06:12:41;101501.97;;;15.96;75.48
32033;BME280;31720;52.638;9.216;2022-07-29T06:15:43;101502.34;;;16.04;75.04
32033;BME280;31720;52.638;9.216;2022-07-29T06:18:46;101504.59;;;16.10;75.19
32033;BME280;31720;52.638;9.216;2022-07-29T06:21:48;101502.06;;;16.09;74.52
32033;BME280;31720;52.638;9.216;2022-07-29T06:24:49;101516.72;;;16.14;74.93
32033;BME280;31720;52.638;9.216;2022-07-29T06:27:50;101508.63;;;16.16;75.00
32033;BME280;31720;52.638;9.216;2022-07-29T06:30:52;101508.34;;;16.20;74.67
32033;BME280;31720;52.638;9.216;2022-07-29T06:33:54;101507.97;;;16.27;74.87
32033;BME280;31720;52.638;9.216;2022-07-29T06:36:56;101510.31;;;16.31;74.80
32033;BME280;31720;52.638;9.216;2022-07-29T06:39:57;101508.94;;;16.38;74.59
32033;BME280;31720;52.638;9.216;2022-07-29T06:43:12;101499.72;;;16.44;75.14
32033;BME280;31720;52.638;9.216;2022-07-29T06:46:15;101493.94;;;16.52;75.54
32033;BME280;31720;52.638;9.216;2022-07-29T06:49:18;101488.50;;;16.53;74.15
32033;BME280;31720;52.638;9.216;2022-07-29T06:52:20;101497.44;;;16.52;74.08
32033;BME280;31720;52.638;9.216;2022-07-29T06:55:21;101491.81;;;16.57;74.69
32033;BME280;31720;52.638;9.216;2022-07-29T06:58:22;101498.44;;;16.64;74.34
32033;BME280;31720;52.638;9.216;2022-07-29T07:01:24;101488.22;;;16.70;74.52
32033;BME280;31720;52.638;9.216;2022-07-29T07:04:27;101493.25;;;16.75;74.72
32033;BME280;31720;52.638;9.216;2022-07-29T07:07:28;101507.97;;;16.81;74.94
32033;BME280;31720;52.638;9.216;2022-07-29T07:10:29;101509.22;;;16.88;74.17
32033;BME280;31720;52.638;9.216;2022-07-29T07:13:31;101507.09;;;16.93;74.70
32033;BME280;31720;52.638;9.216;2022-07-29T07:16:34;101503.28;;;16.97;76.04
32033;BME280;31720;52.638;9.216;2022-07-29T07:19:37;101497.88;;;16.98;75.10
32033;BME280;31720;52.638;9.216;2022-07-29T07:22:38;101503.63;;;17.05;74.98
32033;BME280;31720;52.638;9.216;2022-07-29T07:25:39;101500.66;;;17.10;75.69
32033;BME280;31720;52.638;9.216;2022-07-29T07:28:41;101495.13;;;17.13;75.75
32033;BME280;31720;52.638;9.216;2022-07-29T07:31:42;101495.66;;;17.18;74.79
32033;BME280;31720;52.638;9.216;2022-07-29T07:34:45;101493.84;;;17.18;74.47
32033;BME280;31720;52.638;9.216;2022-07-29T07:37:46;101496.41;;;17.20;73.83
32033;BME280;31720;52.638;9.216;2022-07-29T07:40:47;101489.59;;;17.29;75.21
32033;BME280;31720;52.638;9.216;2022-07-29T07:43:49;101493.09;;;17.42;74.87
32033;BME280;31720;52.638;9.216;2022-07-29T07:46:50;101495.75;;;17.55;74.52
32033;BME280;31720;52.638;9.216;2022-07-29T07:49:53;101495.22;;;17.62;72.98
32033;BME280;31720;52.638;9.216;2022-07-29T07:52:55;101499.66;;;17.74;73.02
32033;BME280;31720;52.638;9.216;2022-07-29T07:55:57;101499.25;;;17.81;71.09
32033;BME280;31720;52.638;9.216;2022-07-29T07:58:59;101497.72;;;17.89;70.84
32033;BME280;31720;52.638;9.216;2022-07-29T08:02:00;101503.97;;;18.01;69.92
32033;BME280;31720;52.638;9.216;2022-07-29T08:05:05;101504.06;;;18.12;70.85
32033;BME280;31720;52.638;9.216;2022-07-29T08:08:07;101500.59;;;18.23;69.68
32033;BME280;31720;52.638;9.216;2022-07-29T08:11:09;101502.44;;;18.34;68.49
32033;BME280;31720;52.638;9.216;2022-07-29T08:14:10;101493.69;;;18.44;68.75
32033;BME280;31720;52.638;9.216;2022-07-29T08:17:11;101499.53;;;18.49;67.49
32033;BME280;31720;52.638;9.216;2022-07-29T08:20:14;101493.59;;;18.57;66.04
32033;BME280;31720;52.638;9.216;2022-07-29T08:23:15;101494.84;;;18.64;67.09
32033;BME280;31720;52.638;9.216;2022-07-29T08:26:19;101494.31;;;18.72;66.35
32033;BME280;31720;52.638;9.216;2022-07-29T08:29:22;101490.19;;;18.79;66.05
32033;BME280;31720;52.638;9.216;2022-07-29T08:32:23;101490.97;;;18.92;66.55
32033;BME280;31720;52.638;9.216;2022-07-29T08:35:26;101491.72;;;19.06;64.75
32033;BME280;31720;52.638;9.216;2022-07-29T08:38:28;101489.09;;;19.17;65.75
32033;BME280;31720;52.638;9.216;2022-07-29T08:41:29;101482.28;;;19.24;65.41
32033;BME280;31720;52.638;9.216;2022-07-29T08:44:31;101483.53;;;19.31;64.98
32033;BME280;31720;52.638;9.216;2022-07-29T08:47:33;101480.38;;;19.37;63.85
32033;BME280;31720;52.638;9.216;2022-07-29T08:50:39;101482.44;;;19.45;64.83
32033;BME280;31720;52.638;9.216;2022-07-29T08:53:42;101485.47;;;19.51;63.79
32033;BME280;31720;52.638;9.216;2022-07-29T08:56:45;101476.25;;;19.56;63.47
32033;BME280;31720;52.638;9.216;2022-07-29T08:59:50;101477.69;;;19.60;61.42
32033;BME280;31720;52.638;9.216;2022-07-29T09:02:57;101474.94;;;19.72;62.17
32033;BME280;31720;52.638;9.216;2022-07-29T09:06:00;101475.28;;;19.90;62.20
32033;BME280;31720;52.638;9.216;2022-07-29T09:09:02;101482.88;;;20.06;61.96
32033;BME280;31720;52.638;9.216;2022-07-29T09:12:04;101476.91;;;20.14;59.86
32033;BME280;31720;52.638;9.216;2022-07-29T09:15:08;101476.41;;;20.20;59.31
32033;BME280;31720;52.638;9.216;2022-07-29T09:18:09;101480.66;;;20.22;59.79
32033;BME280;31720;52.638;9.216;2022-07-29T09:21:14;101487.44;;;20.26;59.40
32033;BME280;31720;52.638;9.216;2022-07-29T09:24:38;101475.91;;;20.26;59.01
32033;BME280;31720;52.638;9.216;2022-07-29T09:27:41;101479.03;;;20.31;59.83
32033;BME280;31720;52.638;9.216;2022-07-29T09:30:50;101475.09;;;20.46;58.65
32033;BME280;31720;52.638;9.216;2022-07-29T09:33:54;101468.38;;;20.63;58.99
32033;BME280;31720;52.638;9.216;2022-07-29T09:37:00;101470.06;;;20.85;56.01
32033;BME280;31720;52.638;9.216;2022-07-29T09:40:11;101464.84;;;21.05;55.68
32033;BME280;31720;52.638;9.216;2022-07-29T09:43:13;101451.97;;;21.19;55.82
32033;BME280;31720;52.638;9.216;2022-07-29T09:46:14;101461.53;;;21.43;56.21
32033;BME280;31720;52.638;9.216;2022-07-29T09:49:16;101458.78;;;21.54;54.72
32033;BME280;31720;52.638;9.216;2022-07-29T09:52:19;101459.22;;;21.59;54.65
32033;BME280;31720;52.638;9.216;2022-07-29T09:55:21;101461.06;;;21.68;54.77
32033;BME280;31720;52.638;9.216;2022-07-29T09:58:22;101456.81;;;21.66;53.58
32033;BME280;31720;52.638;9.216;2022-07-29T10:01:27;101452.22;;;21.77;53.17
32033;BME280;31720;52.638;9.216;2022-07-29T10:04:37;101451.91;;;21.71;52.59
32033;BME280;31720;52.638;9.216;2022-07-29T10:07:45;101450.22;;;21.70;53.44
32033;BME280;31720;52.638;9.216;2022-07-29T10:10:47;101445.47;;;21.83;52.79
32033;BME280;31720;52.638;9.216;2022-07-29T10:13:48;101442.78;;;21.93;53.00
32033;BME280;31720;52.638;9.216;2022-07-29T10:16:50;101438.75;;;22.08;52.46
32033;BME280;31720;52.638;9.216;2022-07-29T10:19:52;101449.34;;;22.19;51.82
32033;BME280;31720;52.638;9.216;2022-07-29T10:22:55;101437.94;;;22.17;50.84
32033;BME280;31720;52.638;9.216;2022-07-29T10:25:57;101444.13;;;22.18;53.00
32033;BME280;31720;52.638;9.216;2022-07-29T10:28:58;101442.44;;;22.26;51.46
32033;BME280;31720;52.638;9.216;2022-07-29T10:32:21;101435.25;;;22.37;51.62
32033;BME280;31720;52.638;9.216;2022-07-29T10:35:59;101441.31;;;22.39;51.00
32033;BME280;31720;52.638;9.216;2022-07-29T10:39:13;101435.94;;;22.39;50.72
32033;BME280;31720;52.638;9.216;2022-07-29T10:42:19;101435.25;;;22.37;50.80
32033;BME280;31720;52.638;9.216;2022-07-29T10:45:23;101429.06;;;22.26;51.33
32033;BME280;31720;52.638;9.216;2022-07-29T10:48:25;101430.31;;;22.22;52.12
32033;BME280;31720;52.638;9.216;2022-07-29T10:51:53;101423.41;;;22.20;52.01
32033;BME280;31720;52.638;9.216;2022-07-29T10:54:57;101425.06;;;22.01;52.02
32033;BME280;31720;52.638;9.216;2022-07-29T10:58:16;101413.22;;;21.85;53.76
32033;BME280;31720;52.638;9.216;2022-07-29T11:01:28;101415.59;;;21.88;54.40
32033;BME280;31720;52.638;9.216;2022-07-29T11:04:58;101414.50;;;22.10;53.25
32033;BME280;31720;52.638;9.216;2022-07-29T11:08:20;101412.00;;;22.37;50.64
32033;BME280;31720;52.638;9.216;2022-07-29T11:11:33;101410.28;;;22.56;50.86
32033;BME280;31720;52.638;9.216;2022-07-29T11:14:56;101407.72;;;22.73;50.19
32033;BME280;31720;52.638;9.216;2022-07-29T11:18:08;101409.25;;;22.86;49.97
32033;BME280;31720;52.638;9.216;2022-07-29T11:21:34;101413.44;;;22.88;49.82
32033;BME280;31720;52.638;9.216;2022-07-29T11:24:36;101410.34;;;22.93;47.61
32033;BME280;31720;52.638;9.216;2022-07-29T11:27:40;101403.16;;;22.93;49.87
32033;BME280;31720;52.638;9.216;2022-07-29T11:30:48;101395.50;;;23.08;49.06
32033;BME280;31720;52.638;9.216;2022-07-29T11:33:50;101404.53;;;23.07;48.36
32033;BME280;31720;52.638;9.216;2022-07-29T11:37:14;101408.06;;;23.08;49.74
32033;BME280;31720;52.638;9.216;2022-07-29T11:40:16;101402.78;;;23.16;49.09
32033;BME280;31720;52.638;9.216;2022-07-29T11:43:45;101397.94;;;23.29;49.77
32033;BME280;31720;52.638;9.216;2022-07-29T11:46:48;101394.19;;;23.49;47.92
32033;BME280;31720;52.638;9.216;2022-07-29T11:49:50;101393.66;;;23.64;48.36
32033;BME280;31720;52.638;9.216;2022-07-29T11:52:52;101385.72;;;23.72;49.32
32033;BME280;31720;52.638;9.216;2022-07-29T11:55:55;101387.03;;;23.86;49.69
32033;BME280;31720;52.638;9.216;2022-07-29T11:59:03;101381.50;;;23.87;46.86
32033;BME280;31720;52.638;9.216;2022-07-29T12:02:05;101377.81;;;23.88;47.83
32033;BME280;31720;52.638;9.216;2022-07-29T12:05:07;101379.53;;;23.89;48.54
32033;BME280;31720;52.638;9.216;2022-07-29T12:08:11;101375.22;;;23.96;47.02
32033;BME280;31720;52.638;9.216;2022-07-29T12:11:16;101375.22;;;23.96;46.14
32033;BME280;31720;52.638;9.216;2022-07-29T12:14:27;101375.47;;;24.03;47.59
32033;BME280;31720;52.638;9.216;2022-07-29T12:17:30;101372.97;;;24.27;47.51
32033;BME280;31720;52.638;9.216;2022-07-29T12:20:32;101370.19;;;24.55;46.06
32033;BME280;31720;52.638;9.216;2022-07-29T12:23:34;101377.41;;;24.80;46.01
32033;BME280;31720;52.638;9.216;2022-07-29T12:26:36;101373.78;;;24.98;44.93
32033;BME280;31720;52.638;9.216;2022-07-29T12:29:39;101377.75;;;25.12;45.29
32033;BME280;31720;52.638;9.216;2022-07-29T12:32:42;101370.91;;;25.17;45.26
32033;BME280;31720;52.638;9.216;2022-07-29T12:35:46;101362.31;;;25.14;43.65
32033;BME280;31720;52.638;9.216;2022-07-29T12:38:48;101357.31;;;25.27;45.06
32033;BME280;31720;52.638;9.216;2022-07-29T12:41:49;101365.97;;;25.55;44.28
32033;BME280;31720;52.638;9.216;2022-07-29T12:44:52;101360.84;;;26.02;42.63
32033;BME280;31720;52.638;9.216;2022-07-29T12:47:53;101354.44;;;26.36;41.46
32033;BME280;31720;52.638;9.216;2022-07-29T12:50:56;101354.28;;;26.62;41.50
32033;BME280;31720;52.638;9.216;2022-07-29T12:54:06;101349.59;;;27.03;41.07
32033;BME280;31720;52.638;9.216;2022-07-29T12:57:08;101347.88;;;27.02;38.87
32033;BME280;31720;52.638;9.216;2022-07-29T13:00:12;101350.34;;;26.81;38.70
32033;BME280;31720;52.638;9.216;2022-07-29T13:03:14;101340.59;;;26.72;38.18
32033;BME280;31720;52.638;9.216;2022-07-29T13:06:29;101341.97;;;26.68;38.41
32033;BME280;31720;52.638;9.216;2022-07-29T13:09:38;101337.41;;;26.68;37.14
32033;BME280;31720;52.638;9.216;2022-07-29T13:13:01;101332.63;;;26.78;37.00
32033;BME280;31720;52.638;9.216;2022-07-29T13:16:07;101330.22;;;27.00;35.08
32033;BME280;31720;52.638;9.216;2022-07-29T13:19:10;101326.00;;;27.37;34.73
32033;BME280;31720;52.638;9.216;2022-07-29T13:22:14;101320.44;;;27.61;34.45
32033;BME280;31720;52.638;9.216;2022-07-29T13:25:24;101318.03;;;27.43;34.24
32033;BME280;31720;52.638;9.216;2022-07-29T13:28:25;101316.94;;;27.29;34.48
32033;BME280;31720;52.638;9.216;2022-07-29T13:31:28;101315.34;;;27.12;33.79
32033;BME280;31720;52.638;9.216;2022-07-29T13:34:29;101317.59;;;26.92;34.22
32033;BME280;31720;52.638;9.216;2022-07-29T13:37:31;101323.38;;;26.81;34.27
32033;BME280;31720;52.638;9.216;2022-07-29T13:40:34;101322.25;;;26.67;34.60
32033;BME280;31720;52.638;9.216;2022-07-29T13:43:35;101324.63;;;26.62;34.80
32033;BME280;31720;52.638;9.216;2022-07-29T13:46:38;101320.69;;;26.81;34.77
32033;BME280;31720;52.638;9.216;2022-07-29T13:49:39;101320.13;;;26.94;35.67
32033;BME280;31720;52.638;9.216;2022-07-29T13:52:41;101323.56;;;27.19;34.55
32033;BME280;31720;52.638;9.216;2022-07-29T13:55:43;101320.13;;;27.33;34.41
32033;BME280;31720;52.638;9.216;2022-07-29T13:58:44;101324.19;;;27.83;32.18
32033;BME280;31720;52.638;9.216;2022-07-29T14:01:47;101320.94;;;28.11;32.73
32033;BME280;31720;52.638;9.216;2022-07-29T14:04:48;101320.09;;;28.10;33.38
32033;BME280;31720;52.638;9.216;2022-07-29T14:07:49;101321.63;;;28.27;33.01
32033;BME280;31720;52.638;9.216;2022-07-29T14:10:50;101313.00;;;28.09;32.64
32033;BME280;31720;52.638;9.216;2022-07-29T14:13:52;101313.13;;;27.93;33.61
32033;BME280;31720;52.638;9.216;2022-07-29T14:16:55;101315.59;;;27.79;34.17
32033;BME280;31720;52.638;9.216;2022-07-29T14:19:56;101308.38;;;27.80;33.39
32033;BME280;31720;52.638;9.216;2022-07-29T14:22:57;101305.34;;;27.75;33.28
32033;BME280;31720;52.638;9.216;2022-07-29T14:25:59;101304.50;;;27.97;34.23
32033;BME280;31720;52.638;9.216;2022-07-29T14:29:00;101304.44;;;28.20;33.16
32033;BME280;31720;52.638;9.216;2022-07-29T14:32:04;101308.91;;;27.98;33.03
32033;BME280;31720;52.638;9.216;2022-07-29T14:35:06;101299.03;;;27.60;34.40
32033;BME280;31720;52.638;9.216;2022-07-29T14:38:08;101304.66;;;27.27;34.60
32033;BME280;31720;52.638;9.216;2022-07-29T14:41:10;101300.88;;;26.97;35.01
32033;BME280;31720;52.638;9.216;2022-07-29T14:44:11;101304.03;;;26.69;36.61
32033;BME280;31720;52.638;9.216;2022-07-29T14:47:14;101313.34;;;26.59;35.01
32033;BME280;31720;52.638;9.216;2022-07-29T14:50:15;101309.63;;;26.51;36.71
32033;BME280;31720;52.638;9.216;2022-07-29T14:53:16;101313.53;;;26.49;36.64
32033;BME280;31720;52.638;9.216;2022-07-29T14:56:18;101306.06;;;26.43;36.40
32033;BME280;31720;52.638;9.216;2022-07-29T14:59:19;101310.63;;;26.34;36.91
32033;BME280;31720;52.638;9.216;2022-07-29T15:02:22;101308.13;;;26.24;39.14
32033;BME280;31720;52.638;9.216;2022-07-29T15:05:23;101303.63;;;26.17;38.79
32033;BME280;31720;52.638;9.216;2022-07-29T15:08:25;101301.25;;;26.05;38.48
32033;BME280;31720;52.638;9.216;2022-07-29T15:11:28;101302.44;;;26.03;38.06
32033;BME280;31720;52.638;9.216;2022-07-29T15:14:29;101296.19;;;26.02;38.83
32033;BME280;31720;52.638;9.216;2022-07-29T15:17:33;101306.50;;;25.99;39.10
32033;BME280;31720;52.638;9.216;2022-07-29T15:20:34;101301.09;;;25.99;38.49
32033;BME280;31720;52.638;9.216;2022-07-29T15:23:35;101301.41;;;26.20;39.50
32033;BME280;31720;52.638;9.216;2022-07-29T15:26:37;101309.50;;;26.45;39.15
32033;BME280;31720;52.638;9.216;2022-07-29T15:29:38;101304.56;;;26.56;38.32
32033;BME280;31720;52.638;9.216;2022-07-29T15:32:41;101303.41;;;26.51;39.10
32033;BME280;31720;52.638;9.216;2022-07-29T15:35:42;101298.16;;;26.41;38.81
32033;BME280;31720;52.638;9.216;2022-07-29T15:38:46;101292.28;;;26.29;38.24
32033;BME280;31720;52.638;9.216;2022-07-29T15:41:48;101291.50;;;26.21;37.71
32033;BME280;31720;52.638;9.216;2022-07-29T15:44:49;101286.94;;;26.13;38.92
32033;BME280;31720;52.638;9.216;2022-07-29T15:47:52;101290.97;;;26.01;38.84
32033;BME280;31720;52.638;9.216;2022-07-29T15:50:53;101286.63;;;25.92;40.61
32033;BME280;31720;52.638;9.216;2022-07-29T15:53:55;101282.44;;;25.89;39.17
32033;BME280;31720;52.638;9.216;2022-07-29T15:56:57;101285.63;;;25.85;41.02
32033;BME280;31720;52.638;9.216;2022-07-29T15:59:58;101281.91;;;25.77;41.42
32033;BME280;31720;52.638;9.216;2022-07-29T16:03:01;101278.53;;;25.75;41.50
32033;BME280;31720;52.638;9.216;2022-07-29T16:06:04;101278.16;;;25.70;41.16